Cape Express — HO5337 — position and weather

sailwx.info

Track history (hours):
 
Tides and Currents Weather Stations Pressure Air Temp Water Temp Dewpoint Dewpoint Depression Visibility Wind Speed Wind Dir Waves Ship Positions

Cape Express

Last reported at 2015-Jul-04 05:33 UTC. Time now 2015-Jul-05 09:26 UTC.
Position N 26°04' W 080°08'.

Length 29 m; draft 2.2 m.

Type: Cargo ship. MMSI: 370269000.

Date/timePositionNaut miles runAvg speedWind from/ knotsBaromVisibWave heightAir tempDewpointWater temp
2015-Jul-04 05:33N 26°04' W 080°08'0 0.0
2015-Jul-04 04:33N 26°04' W 080°08'0 0.0
2015-Jul-04 03:33N 26°04' W 080°08'0 0.0
2015-Jul-04 02:33N 26°04' W 080°08'0 0.0
2015-Jul-04 01:33N 26°04' W 080°08'0 0.0
2015-Jul-04 00:33N 26°04' W 080°08'0 0.0
2015-Jul-03 23:33N 26°04' W 080°08'0 0.0
2015-Jul-03 22:33N 26°04' W 080°08'0 0.0
2015-Jul-03 21:33N 26°04' W 080°08'0 0.1
2015-Jul-03 20:33N 26°04' W 080°08'4 3.5
2015-Jul-03 19:33N 26°05' W 080°04'1110.7
2015-Jul-03 18:33N 26°00' W 079°54'1211.8
2015-Jul-03 17:32N 25°54' W 079°42'6 0.6
2015-Jul-03 08:16N 25°51' W 079°37'4 5.6
2015-Jul-03 07:33N 25°53' W 079°41'6 6.0
2015-Jul-03 06:33N 25°56' W 079°47'6 6.2
2015-Jul-03 05:33N 25°59' W 079°52'7 7.1
2015-Jul-03 04:33N 26°03' W 079°59'7 7.1
2015-Jul-03 03:33N 26°05' W 080°07'1 1.4
2015-Jul-03 02:33N 26°04' W 080°08'0 0.0
2015-Jul-03 01:33N 26°04' W 080°08'0 0.0
2015-Jul-03 00:33N 26°04' W 080°08'0 0.0
2015-Jul-02 23:33N 26°04' W 080°08'0 0.0
2015-Jul-02 22:33N 26°04' W 080°08'0 0.0
2015-Jul-02 21:33N 26°04' W 080°08'4 4.4
2015-Jul-02 20:33N 26°05' W 080°03'1010.3
2015-Jul-02 19:33N 26°01' W 079°52'1010.4
2015-Jul-02 18:33N 25°59' W 079°41'1010.3
2015-Jul-02 17:33N 25°56' W 079°30'33 0.8
2015-Jul-01 02:28N 26°02' W 078°54'9 9.3
2015-Jul-01 01:32N 26°04' W 079°04'21 9.5
2015-Jun-30 23:21N 26°05' W 079°27'7 9.3
2015-Jun-30 22:33N 26°05' W 079°35'9 8.9
2015-Jun-30 21:33N 26°05' W 079°45'9 8.8
2015-Jun-30 20:33N 26°05' W 079°54'9 9.1
2015-Jun-30 19:33N 26°05' W 080°05'3 3.3
2015-Jun-30 18:33N 26°04' W 080°08'0 0.0
2015-Jun-30 17:33N 26°04' W 080°08'0 0.0
2015-Jun-30 16:33N 26°04' W 080°08'0 0.0
2015-Jun-30 15:33N 26°04' W 080°08'0 0.0
2015-Jun-30 14:33N 26°04' W 080°08'0 0.0
2015-Jun-30 13:33N 26°04' W 080°08'0 0.0
2015-Jun-30 12:33N 26°04' W 080°08'0 0.0
2015-Jun-30 11:33N 26°04' W 080°08'0 0.0
2015-Jun-30 10:33N 26°04' W 080°08'0 0.0
2015-Jun-30 09:33N 26°04' W 080°08'0 0.0
2015-Jun-30 08:33N 26°04' W 080°08'0 0.0
2015-Jun-30 07:33N 26°04' W 080°08'0 0.0
2015-Jun-30 06:33N 26°04' W 080°08'0 0.0
2015-Jun-30 05:33N 26°04' W 080°08'0 0.0
2015-Jun-30 04:33N 26°04' W 080°08'0 0.0
2015-Jun-30 03:33N 26°04' W 080°08'0 0.0
2015-Jun-30 02:33N 26°04' W 080°08'0 0.0
2015-Jun-30 01:33N 26°04' W 080°08'0 0.0
2015-Jun-30 00:33N 26°04' W 080°08'0 0.0
2015-Jun-29 23:33N 26°04' W 080°08'0 0.0
2015-Jun-29 22:33N 26°04' W 080°08'0 0.0
2015-Jun-29 21:33N 26°04' W 080°08'0 0.0
2015-Jun-29 20:33N 26°04' W 080°08'0 0.0
2015-Jun-29 19:33N 26°04' W 080°08'0 0.0
2015-Jun-29 18:33N 26°04' W 080°08'0 0.0
2015-Jun-29 17:33N 26°04' W 080°08'0 0.0
2015-Jun-29 16:33N 26°04' W 080°08'0 0.0
2015-Jun-29 15:33N 26°04' W 080°08'0 0.0
2015-Jun-29 14:33N 26°04' W 080°08'0 0.0
2015-Jun-29 13:33N 26°04' W 080°08'0 0.0
2015-Jun-29 12:33N 26°04' W 080°08'1 0.9
2015-Jun-29 11:33N 26°04' W 080°07'8 7.7
2015-Jun-29 10:33N 26°04' W 079°58'1010.2
2015-Jun-29 09:33N 26°01' W 079°47'9 9.5
2015-Jun-29 08:33N 25°58' W 079°37'  
2015-Jun-26 00:21N 26°05' W 079°24'8 9.9
2015-Jun-25 23:33N 26°05' W 079°33'10 9.6
2015-Jun-25 22:33N 26°05' W 079°43'9 9.2
2015-Jun-25 21:33N 26°05' W 079°53'9 9.3
2015-Jun-25 20:33N 26°06' W 080°04'4 4.0
2015-Jun-25 19:33N 26°04' W 080°08'0 0.0
2015-Jun-25 18:33N 26°04' W 080°08'0 0.0
2015-Jun-25 17:33N 26°04' W 080°08'0 0.0
2015-Jun-25 16:33N 26°04' W 080°08'2 2.4
2015-Jun-25 15:33N 26°06' W 080°06'1110.7
2015-Jun-25 14:33N 26°03' W 079°55'1110.8
2015-Jun-25 13:33N 25°59' W 079°43'1110.8
2015-Jun-25 12:33N 25°56' W 079°32'  
Track history (hours):
 
Tides and Currents Weather Stations Pressure Air Temp Water Temp Dewpoint Dewpoint Depression Visibility Wind Speed Wind Dir Waves Ship Positions

Cape Express

Last reported at 2015-Jul-04 05:33 UTC. Time now 2015-Jul-05 09:26 UTC.
Position N 26°04' W 080°08'.

Length 29 m; draft 2.2 m.

Type: Cargo ship. MMSI: 370269000.

Date/timePositionNaut miles runAvg speedWind from/ knotsBaromVisibWave heightAir tempDewpointWater temp
2015-Jul-04 05:33N 26°04' W 080°08'0 0.0
2015-Jul-04 04:33N 26°04' W 080°08'0 0.0
2015-Jul-04 03:33N 26°04' W 080°08'0 0.0
2015-Jul-04 02:33N 26°04' W 080°08'0 0.0
2015-Jul-04 01:33N 26°04' W 080°08'0 0.0
2015-Jul-04 00:33N 26°04' W 080°08'0 0.0
2015-Jul-03 23:33N 26°04' W 080°08'0 0.0
2015-Jul-03 22:33N 26°04' W 080°08'0 0.0
2015-Jul-03 21:33N 26°04' W 080°08'0 0.1
2015-Jul-03 20:33N 26°04' W 080°08'4 3.5
2015-Jul-03 19:33N 26°05' W 080°04'1110.7
2015-Jul-03 18:33N 26°00' W 079°54'1211.8
2015-Jul-03 17:32N 25°54' W 079°42'6 0.6
2015-Jul-03 08:16N 25°51' W 079°37'4 5.6
2015-Jul-03 07:33N 25°53' W 079°41'6 6.0
2015-Jul-03 06:33N 25°56' W 079°47'6 6.2
2015-Jul-03 05:33N 25°59' W 079°52'7 7.1
2015-Jul-03 04:33N 26°03' W 079°59'7 7.1
2015-Jul-03 03:33N 26°05' W 080°07'1 1.4
2015-Jul-03 02:33N 26°04' W 080°08'0 0.0
2015-Jul-03 01:33N 26°04' W 080°08'0 0.0
2015-Jul-03 00:33N 26°04' W 080°08'0 0.0
2015-Jul-02 23:33N 26°04' W 080°08'0 0.0
2015-Jul-02 22:33N 26°04' W 080°08'0 0.0
2015-Jul-02 21:33N 26°04' W 080°08'4 4.4
2015-Jul-02 20:33N 26°05' W 080°03'1010.3
2015-Jul-02 19:33N 26°01' W 079°52'1010.4
2015-Jul-02 18:33N 25°59' W 079°41'1010.3
2015-Jul-02 17:33N 25°56' W 079°30'33 0.8
2015-Jul-01 02:28N 26°02' W 078°54'9 9.3
2015-Jul-01 01:32N 26°04' W 079°04'21 9.5
2015-Jun-30 23:21N 26°05' W 079°27'7 9.3
2015-Jun-30 22:33N 26°05' W 079°35'9 8.9
2015-Jun-30 21:33N 26°05' W 079°45'9 8.8
2015-Jun-30 20:33N 26°05' W 079°54'9 9.1
2015-Jun-30 19:33N 26°05' W 080°05'3 3.3
2015-Jun-30 18:33N 26°04' W 080°08'0 0.0
2015-Jun-30 17:33N 26°04' W 080°08'0 0.0
2015-Jun-30 16:33N 26°04' W 080°08'0 0.0
2015-Jun-30 15:33N 26°04' W 080°08'0 0.0
2015-Jun-30 14:33N 26°04' W 080°08'0 0.0
2015-Jun-30 13:33N 26°04' W 080°08'0 0.0
2015-Jun-30 12:33N 26°04' W 080°08'0 0.0
2015-Jun-30 11:33N 26°04' W 080°08'0 0.0
2015-Jun-30 10:33N 26°04' W 080°08'0 0.0
2015-Jun-30 09:33N 26°04' W 080°08'0 0.0
2015-Jun-30 08:33N 26°04' W 080°08'0 0.0
2015-Jun-30 07:33N 26°04' W 080°08'0 0.0
2015-Jun-30 06:33N 26°04' W 080°08'0 0.0
2015-Jun-30 05:33N 26°04' W 080°08'0 0.0
2015-Jun-30 04:33N 26°04' W 080°08'0 0.0
2015-Jun-30 03:33N 26°04' W 080°08'0 0.0
2015-Jun-30 02:33N 26°04' W 080°08'0 0.0
2015-Jun-30 01:33N 26°04' W 080°08'0 0.0
2015-Jun-30 00:33N 26°04' W 080°08'0 0.0
2015-Jun-29 23:33N 26°04' W 080°08'0 0.0
2015-Jun-29 22:33N 26°04' W 080°08'0 0.0
2015-Jun-29 21:33N 26°04' W 080°08'0 0.0
2015-Jun-29 20:33N 26°04' W 080°08'0 0.0
2015-Jun-29 19:33N 26°04' W 080°08'0 0.0
2015-Jun-29 18:33N 26°04' W 080°08'0 0.0
2015-Jun-29 17:33N 26°04' W 080°08'0 0.0
2015-Jun-29 16:33N 26°04' W 080°08'0 0.0
2015-Jun-29 15:33N 26°04' W 080°08'0 0.0
2015-Jun-29 14:33N 26°04' W 080°08'0 0.0
2015-Jun-29 13:33N 26°04' W 080°08'0 0.0
2015-Jun-29 12:33N 26°04' W 080°08'1 0.9
2015-Jun-29 11:33N 26°04' W 080°07'8 7.7
2015-Jun-29 10:33N 26°04' W 079°58'1010.2
2015-Jun-29 09:33N 26°01' W 079°47'9 9.5
2015-Jun-29 08:33N 25°58' W 079°37'  
2015-Jun-26 00:21N 26°05' W 079°24'8 9.9
2015-Jun-25 23:33N 26°05' W 079°33'10 9.6
2015-Jun-25 22:33N 26°05' W 079°43'9 9.2
2015-Jun-25 21:33N 26°05' W 079°53'9 9.3
2015-Jun-25 20:33N 26°06' W 080°04'4 4.0
2015-Jun-25 19:33N 26°04' W 080°08'0 0.0
2015-Jun-25 18:33N 26°04' W 080°08'0 0.0
2015-Jun-25 17:33N 26°04' W 080°08'0 0.0
2015-Jun-25 16:33N 26°04' W 080°08'2 2.4
2015-Jun-25 15:33N 26°06' W 080°06'1110.7
2015-Jun-25 14:33N 26°03' W 079°55'1110.8
2015-Jun-25 13:33N 25°59' W 079°43'1110.8
2015-Jun-25 12:33N 25°56' W 079°32'  

Dump ship's entire track history